Latest Observation

25 Stations

15 Minute Data | America/Los_Angeles
as of 8/30/26 7:36 PM PDT
Station Date Time Temp (°F) RH (%) Dew Pt (°F) Wind Spd (mph) Wind Dir (°) Wind Gust (mph) Latest Rain (In) Daily Rain (In) Daily Min Temp (°F) Daily Max Temp (°F)
Rockpile Upper (Cooley) 8/30/26 1930 72.5   8.7 37   0 44.4   7.5 2.7   15.2 WNW | 299 7.2   21.5 0.00 0.00 51.8   0.1 86.6   5.9
Rockpile Lower (Cooley) 8/30/26 1915 76.4   8.3 30   3 42.7   4.9 1.6   10.0 W | 260 4.3   14.6 0.00 0.00 53.7   1.4 90.6   5.6
Cloverdale-East (Ranch 83) 8/30/26 1930 78.6   3.3 - - 4.0   1.4 S | 189 9.6   3.0 0.00 0.00 46.5   3.2 91.4   0.9
Cloverdale-SE (Ranch 38) 8/30/26 1930 77.6   2.7 40   4 51.2   5.6 6.9   0.9 SSE | 160 10.6   3.2 0.00 0.00 53.9   3.2 88.9   1.3
Geyserville-North (Hoffman) 8/30/26 1930 78.0   0.8 42   9 52.9   6.9 4.0   0.7 SE | 124 8.3   0.0 0.00 0.00 45.4   2.7 88.9   2.9
Geyserville (Ranch 3) 8/30/26 1930 77.7   0.9 38   11 50.3   7.8 4.1   0.2 ESE | 113 8.8   1.2 0.00 0.00 46.6   2.1 89.2   1.3
Geyserville-East (Ranch 40) 8/30/26 1930 74.6   0.5 44   8 51.6   5.1 10.1   5.3 SSE | 151 14.0   2.6 0.00 0.00 52.9   3.8 86.6   1.8
Geyserville-South (Nervo Station) 8/30/26 1930 75.4   1.5 - - 3.3   3.8 SE | 125 6.8   8.4 0.00 0.00 50.2   2.4 88.1   2.6
Peterson (Ranch 09) 8/30/26 1930 75.1   2.1 40   12 49.4   7.3 3.8   2.9 ESE | 104 7.5   5.5 0.00 0.00 44.8   1.0 87.4   2.3
Crazy Creek Ranch 8/30/26 1930 75.6   1.2 45   10 52.6   5.5 1.4   5.3 SE | 137 3.7   10.4 0.00 0.00 45.2   0.5 88.6   1.6
Whitton Ranch (201e) 8/30/26 1930 75.2   1.6 43   12 50.9   7.4 2.6   2.8 ESE | 109 5.4   6.4 0.00 0.00 40.8   0.9 90.0   1.9
Lytton East (Shop Hill Bottom) 8/30/26 1930 74.2   3.0 42   15 49.3   9.2 4.0   3.0 SE | 145 7.5   7.7 0.00 0.00 45.4   0.8 87.5   2.1
Lytton East (Hill 5) 8/30/26 1930 74.5   2.9 41   14 49.6   8.6 5.5   6.8 SSE | 164 10.2   12.8 0.00 0.00 49.0   0.1 87.4   2.5
Lytton West Lower (Lew 6) 8/30/26 1930 75.0   2.8 42   15 50.4   9.1 3.2   2.6 ESE | 110 8.1   4.0 0.00 0.00 44.2   1.0 87.6   2.4
Lytton West Hill (23PS) 8/30/26 1930 74.4   3.4 43   14 50.5   7.8 4.1   0.0 ESE | 116 8.9   0.8 0.00 0.00 49.8   0.0 87.0   2.3
Big River 8/30/26 1930 73.4   4.8 48   16 52.5   6.2 1.9   2.7 SE | 132 4.5   9.1 0.00 0.00 48.6   0.6 85.4   1.9
Jimtown-North (Piccolo Ranch 15) 8/30/26 1930 76.0   2.5 37   9 47.6   4.9 1.1   3.1 SSE | 148 4.6   4.8 0.00 0.00 44.0   0.4 89.2   2.7
HWY 128/Chalk Hill Rd (Landslide) 8/30/26 1900 79.2   2.4 37   1 50.8   1.4 2.4   0.4 S | 174 9.7   4.7 0.00 0.00 43.4   0.4 88.9   2.7
N Chalk Hill Rd (Ranch 63) 8/30/26 1930 74.1   4.5 43   14 50.1   6.3 2.9   2.4 SSE | 162 6.2   4.3 0.00 0.00 42.3   0.8 86.0   1.8
Newman Knights Valley 8/18/26 0015 56.2   1.8 85   4 51.7   0.4 0.8   3.5 NE | 55 2.3   5.8 0.00 0.00 55.0   1.2 88.3   0.6
Knights Valley (Bavarian Lion) 8/30/26 1930 75.7   2.4 38   2 48.2   1.0 1.3   0.2 WSW | 258 2.9   1.4 0.00 0.00 42.2   1.9 86.7   0.3
Red Tail 8/30/26 1930 74.3   2.2 46   0 52.3   1.8 2.0   0.7 ESE | 105 5.6   0.1 0.00 0.00 44.7   0.6 85.2   0.4
Franz Valley (Stornetta) 8/30/26 1930 71.9   0.7 48   2 51.4   1.8 0.8   0.5 SSE | 160 3.2   1.6 0.00 0.00 42.1   1.7 87.3   1.4
Upper Dry Creek Valley 8/30/26 1930 77.0   0.9 37   11 48.6   9.8 4.2   2.6 SE | 128 8.7   4.4 0.00 0.00 46.0   2.2 88.9   0.6
Lower Dry Creek Valley 8/30/26 1930 74.7   3.5 43   15 50.7   8.7 4.9   0.8 N | 355 10.3   0.0 0.00 0.00 44.7   0.8 86.4   1.9
Max     79.2 48 52.9 10.1 - 14.0 0.00 0.00 53.9 91.4
Avg     75.5 41 49.9 3.4 - 7.4 0.00 - - -
Min     71.9 30 42.7 0.8 - 2.9 0.00 0.00 40.8 85.2